sensor_id;sensor_type;location;lat;lon;timestamp;P1;durP1;ratioP1;P2;durP2;ratioP2
21091;SDS011;10704;42.678;23.288;2022-08-21T00:00:09;18.88;;;11.05;;
21091;SDS011;10704;42.678;23.288;2022-08-21T00:02:44;21.27;;;11.68;;
21091;SDS011;10704;42.678;23.288;2022-08-21T00:05:12;22.23;;;13.30;;
21091;SDS011;10704;42.678;23.288;2022-08-21T00:07:38;18.40;;;12.10;;
21091;SDS011;10704;42.678;23.288;2022-08-21T00:10:05;23.48;;;12.80;;
21091;SDS011;10704;42.678;23.288;2022-08-21T00:12:31;23.95;;;12.65;;
21091;SDS011;10704;42.678;23.288;2022-08-21T00:14:57;22.10;;;11.77;;
21091;SDS011;10704;42.678;23.288;2022-08-21T00:17:24;21.45;;;11.82;;
21091;SDS011;10704;42.678;23.288;2022-08-21T00:19:50;20.13;;;11.18;;
21091;SDS011;10704;42.678;23.288;2022-08-21T00:22:16;21.42;;;12.52;;
21091;SDS011;10704;42.678;23.288;2022-08-21T00:24:42;21.45;;;12.35;;
21091;SDS011;10704;42.678;23.288;2022-08-21T00:27:08;19.00;;;11.98;;
21091;SDS011;10704;42.678;23.288;2022-08-21T00:29:34;21.10;;;12.18;;
21091;SDS011;10704;42.678;23.288;2022-08-21T00:32:00;20.83;;;11.00;;
21091;SDS011;10704;42.678;23.288;2022-08-21T00:34:26;22.80;;;11.52;;
21091;SDS011;10704;42.678;23.288;2022-08-21T00:36:51;22.73;;;11.82;;
21091;SDS011;10704;42.678;23.288;2022-08-21T00:39:17;21.25;;;12.13;;
21091;SDS011;10704;42.678;23.288;2022-08-21T00:41:43;19.33;;;11.75;;
21091;SDS011;10704;42.678;23.288;2022-08-21T00:44:11;18.83;;;10.07;;
21091;SDS011;10704;42.678;23.288;2022-08-21T00:46:41;17.90;;;9.38;;
21091;SDS011;10704;42.678;23.288;2022-08-21T00:49:08;18.45;;;10.23;;
21091;SDS011;10704;42.678;23.288;2022-08-21T00:51:43;17.00;;;10.38;;
21091;SDS011;10704;42.678;23.288;2022-08-21T00:54:14;23.42;;;11.02;;
21091;SDS011;10704;42.678;23.288;2022-08-21T00:56:41;14.30;;;9.55;;
21091;SDS011;10704;42.678;23.288;2022-08-21T00:59:08;16.92;;;10.27;;
21091;SDS011;10704;42.678;23.288;2022-08-21T01:01:34;16.02;;;9.25;;
21091;SDS011;10704;42.678;23.288;2022-08-21T01:04:00;19.70;;;10.40;;
21091;SDS011;10704;42.678;23.288;2022-08-21T01:06:26;16.23;;;9.48;;
21091;SDS011;10704;42.678;23.288;2022-08-21T01:08:52;17.73;;;9.45;;
21091;SDS011;10704;42.678;23.288;2022-08-21T01:11:18;17.92;;;10.18;;
21091;SDS011;10704;42.678;23.288;2022-08-21T01:13:45;20.67;;;10.95;;
21091;SDS011;10704;42.678;23.288;2022-08-21T01:16:13;19.98;;;11.27;;
21091;SDS011;10704;42.678;23.288;2022-08-21T01:18:42;18.33;;;11.23;;
21091;SDS011;10704;42.678;23.288;2022-08-21T01:21:10;17.83;;;10.93;;
21091;SDS011;10704;42.678;23.288;2022-08-21T01:23:39;23.10;;;11.35;;
21091;SDS011;10704;42.678;23.288;2022-08-21T01:26:08;21.20;;;11.43;;
21091;SDS011;10704;42.678;23.288;2022-08-21T01:28:42;17.45;;;10.80;;
21091;SDS011;10704;42.678;23.288;2022-08-21T01:31:14;18.20;;;10.35;;
21091;SDS011;10704;42.678;23.288;2022-08-21T01:33:42;21.73;;;11.45;;
21091;SDS011;10704;42.678;23.288;2022-08-21T01:36:08;17.20;;;11.35;;
21091;SDS011;10704;42.678;23.288;2022-08-21T01:38:34;17.42;;;10.15;;
21091;SDS011;10704;42.678;23.288;2022-08-21T01:41:01;17.77;;;10.60;;
21091;SDS011;10704;42.678;23.288;2022-08-21T01:43:26;20.90;;;10.38;;
21091;SDS011;10704;42.678;23.288;2022-08-21T01:45:52;18.38;;;9.98;;
21091;SDS011;10704;42.678;23.288;2022-08-21T01:48:18;21.83;;;9.95;;
21091;SDS011;10704;42.678;23.288;2022-08-21T01:50:45;18.90;;;10.63;;
21091;SDS011;10704;42.678;23.288;2022-08-21T01:53:10;15.75;;;9.18;;
21091;SDS011;10704;42.678;23.288;2022-08-21T01:55:36;13.50;;;8.30;;
21091;SDS011;10704;42.678;23.288;2022-08-21T01:58:02;14.65;;;8.88;;
21091;SDS011;10704;42.678;23.288;2022-08-21T02:00:29;18.90;;;10.25;;
21091;SDS011;10704;42.678;23.288;2022-08-21T02:02:55;18.27;;;9.82;;
21091;SDS011;10704;42.678;23.288;2022-08-21T02:05:21;20.40;;;11.20;;
21091;SDS011;10704;42.678;23.288;2022-08-21T02:07:50;16.70;;;11.50;;
21091;SDS011;10704;42.678;23.288;2022-08-21T02:10:22;23.02;;;12.93;;
21091;SDS011;10704;42.678;23.288;2022-08-21T02:12:52;20.35;;;12.50;;
21091;SDS011;10704;42.678;23.288;2022-08-21T02:15:18;23.50;;;12.90;;
21091;SDS011;10704;42.678;23.288;2022-08-21T02:17:46;23.33;;;12.13;;
21091;SDS011;10704;42.678;23.288;2022-08-21T02:20:36;19.02;;;11.30;;
21091;SDS011;10704;42.678;23.288;2022-08-21T02:23:03;35.45;;;16.10;;
21091;SDS011;10704;42.678;23.288;2022-08-21T02:25:31;25.80;;;15.43;;
21091;SDS011;10704;42.678;23.288;2022-08-21T02:27:57;28.42;;;16.40;;
21091;SDS011;10704;42.678;23.288;2022-08-21T02:30:26;31.38;;;17.13;;
21091;SDS011;10704;42.678;23.288;2022-08-21T02:32:55;34.58;;;17.98;;
21091;SDS011;10704;42.678;23.288;2022-08-21T02:35:21;28.52;;;16.70;;
21091;SDS011;10704;42.678;23.288;2022-08-21T02:37:54;28.67;;;16.45;;
21091;SDS011;10704;42.678;23.288;2022-08-21T02:40:25;33.78;;;15.70;;
21091;SDS011;10704;42.678;23.288;2022-08-21T02:42:54;28.80;;;16.30;;
21091;SDS011;10704;42.678;23.288;2022-08-21T02:45:20;29.92;;;16.55;;
21091;SDS011;10704;42.678;23.288;2022-08-21T02:47:47;25.90;;;14.95;;
21091;SDS011;10704;42.678;23.288;2022-08-21T02:50:16;31.73;;;16.67;;
21091;SDS011;10704;42.678;23.288;2022-08-21T02:52:44;23.98;;;14.70;;
21091;SDS011;10704;42.678;23.288;2022-08-21T02:55:10;27.08;;;15.07;;
21091;SDS011;10704;42.678;23.288;2022-08-21T02:57:36;26.45;;;14.80;;
21091;SDS011;10704;42.678;23.288;2022-08-21T03:00:03;23.35;;;13.88;;
21091;SDS011;10704;42.678;23.288;2022-08-21T03:02:33;27.45;;;14.48;;
21091;SDS011;10704;42.678;23.288;2022-08-21T03:04:59;25.42;;;14.50;;
21091;SDS011;10704;42.678;23.288;2022-08-21T03:07:25;29.48;;;15.25;;
21091;SDS011;10704;42.678;23.288;2022-08-21T03:09:52;30.30;;;15.18;;
21091;SDS011;10704;42.678;23.288;2022-08-21T03:12:17;25.65;;;14.30;;
21091;SDS011;10704;42.678;23.288;2022-08-21T03:14:43;30.60;;;16.83;;
21091;SDS011;10704;42.678;23.288;2022-08-21T03:17:11;28.73;;;15.13;;
21091;SDS011;10704;42.678;23.288;2022-08-21T03:19:36;28.55;;;14.98;;
21091;SDS011;10704;42.678;23.288;2022-08-21T03:22:02;23.65;;;10.90;;
21091;SDS011;10704;42.678;23.288;2022-08-21T03:24:28;16.30;;;9.65;;
21091;SDS011;10704;42.678;23.288;2022-08-21T03:26:54;18.75;;;9.45;;
21091;SDS011;10704;42.678;23.288;2022-08-21T03:29:20;19.45;;;9.52;;
21091;SDS011;10704;42.678;23.288;2022-08-21T03:31:46;21.08;;;10.20;;
21091;SDS011;10704;42.678;23.288;2022-08-21T03:34:12;24.42;;;11.60;;
21091;SDS011;10704;42.678;23.288;2022-08-21T03:36:39;21.50;;;10.15;;
21091;SDS011;10704;42.678;23.288;2022-08-21T03:39:05;19.73;;;10.98;;
21091;SDS011;10704;42.678;23.288;2022-08-21T03:41:31;35.63;;;15.52;;
21091;SDS011;10704;42.678;23.288;2022-08-21T03:43:57;35.35;;;16.92;;
21091;SDS011;10704;42.678;23.288;2022-08-21T03:46:24;38.45;;;18.83;;
21091;SDS011;10704;42.678;23.288;2022-08-21T03:48:50;41.72;;;20.92;;
21091;SDS011;10704;42.678;23.288;2022-08-21T03:51:18;45.38;;;21.63;;
21091;SDS011;10704;42.678;23.288;2022-08-21T03:53:44;46.05;;;21.95;;
21091;SDS011;10704;42.678;23.288;2022-08-21T03:56:10;45.97;;;21.83;;
21091;SDS011;10704;42.678;23.288;2022-08-21T03:58:36;47.28;;;23.20;;
21091;SDS011;10704;42.678;23.288;2022-08-21T04:01:04;47.22;;;23.02;;
21091;SDS011;10704;42.678;23.288;2022-08-21T04:03:31;47.97;;;24.17;;
21091;SDS011;10704;42.678;23.288;2022-08-21T04:06:00;47.55;;;22.95;;
21091;SDS011;10704;42.678;23.288;2022-08-21T04:08:26;42.17;;;23.30;;
21091;SDS011;10704;42.678;23.288;2022-08-21T04:10:53;37.45;;;19.77;;
21091;SDS011;10704;42.678;23.288;2022-08-21T04:13:21;34.38;;;18.35;;
21091;SDS011;10704;42.678;23.288;2022-08-21T04:15:48;33.70;;;18.75;;
21091;SDS011;10704;42.678;23.288;2022-08-21T04:18:14;32.80;;;17.83;;
21091;SDS011;10704;42.678;23.288;2022-08-21T04:20:41;28.50;;;16.25;;
21091;SDS011;10704;42.678;23.288;2022-08-21T04:23:08;27.27;;;14.23;;
21091;SDS011;10704;42.678;23.288;2022-08-21T04:25:34;26.17;;;15.23;;
21091;SDS011;10704;42.678;23.288;2022-08-21T04:28:00;25.65;;;14.68;;
21091;SDS011;10704;42.678;23.288;2022-08-21T04:30:27;26.45;;;14.27;;
21091;SDS011;10704;42.678;23.288;2022-08-21T04:32:53;21.85;;;13.10;;
21091;SDS011;10704;42.678;23.288;2022-08-21T04:35:20;26.20;;;13.18;;
21091;SDS011;10704;42.678;23.288;2022-08-21T04:37:48;15.88;;;9.82;;
21091;SDS011;10704;42.678;23.288;2022-08-21T04:40:15;19.75;;;9.95;;
21091;SDS011;10704;42.678;23.288;2022-08-21T04:42:44;16.13;;;9.50;;
21091;SDS011;10704;42.678;23.288;2022-08-21T04:45:25;18.80;;;9.00;;
21091;SDS011;10704;42.678;23.288;2022-08-21T04:47:57;19.20;;;8.63;;
21091;SDS011;10704;42.678;23.288;2022-08-21T04:50:28;14.80;;;9.00;;
21091;SDS011;10704;42.678;23.288;2022-08-21T04:53:22;16.08;;;8.98;;
21091;SDS011;10704;42.678;23.288;2022-08-21T04:55:57;19.67;;;9.98;;
21091;SDS011;10704;42.678;23.288;2022-08-21T04:58:26;15.20;;;8.50;;
21091;SDS011;10704;42.678;23.288;2022-08-21T05:00:53;17.80;;;10.10;;
21091;SDS011;10704;42.678;23.288;2022-08-21T05:03:21;19.90;;;10.02;;
21091;SDS011;10704;42.678;23.288;2022-08-21T05:05:48;21.02;;;11.63;;
21091;SDS011;10704;42.678;23.288;2022-08-21T05:08:15;28.35;;;14.35;;
21091;SDS011;10704;42.678;23.288;2022-08-21T05:10:43;21.23;;;10.98;;
21091;SDS011;10704;42.678;23.288;2022-08-21T05:13:10;15.98;;;9.65;;
21091;SDS011;10704;42.678;23.288;2022-08-21T05:15:39;16.77;;;9.88;;
21091;SDS011;10704;42.678;23.288;2022-08-21T05:18:06;22.25;;;11.27;;
21091;SDS011;10704;42.678;23.288;2022-08-21T05:20:33;16.33;;;10.13;;
21091;SDS011;10704;42.678;23.288;2022-08-21T05:23:01;17.60;;;9.68;;
21091;SDS011;10704;42.678;23.288;2022-08-21T05:25:33;14.95;;;9.10;;
21091;SDS011;10704;42.678;23.288;2022-08-21T05:27:59;17.48;;;10.02;;
21091;SDS011;10704;42.678;23.288;2022-08-21T05:30:25;16.15;;;10.20;;
21091;SDS011;10704;42.678;23.288;2022-08-21T05:32:55;16.70;;;10.43;;
21091;SDS011;10704;42.678;23.288;2022-08-21T05:35:25;16.60;;;9.60;;
21091;SDS011;10704;42.678;23.288;2022-08-21T05:37:55;16.02;;;8.60;;
21091;SDS011;10704;42.678;23.288;2022-08-21T05:40:22;15.15;;;8.90;;
21091;SDS011;10704;42.678;23.288;2022-08-21T05:42:49;14.65;;;8.52;;
21091;SDS011;10704;42.678;23.288;2022-08-21T05:45:16;16.50;;;8.95;;
21091;SDS011;10704;42.678;23.288;2022-08-21T05:47:42;15.25;;;8.05;;
21091;SDS011;10704;42.678;23.288;2022-08-21T05:50:09;15.18;;;8.40;;
21091;SDS011;10704;42.678;23.288;2022-08-21T05:52:35;16.70;;;8.23;;
21091;SDS011;10704;42.678;23.288;2022-08-21T05:55:01;13.07;;;7.57;;
21091;SDS011;10704;42.678;23.288;2022-08-21T05:57:27;16.25;;;7.43;;
21091;SDS011;10704;42.678;23.288;2022-08-21T05:59:53;13.63;;;7.25;;
21091;SDS011;10704;42.678;23.288;2022-08-21T06:02:20;17.77;;;8.88;;
21091;SDS011;10704;42.678;23.288;2022-08-21T06:04:47;14.52;;;8.57;;
21091;SDS011;10704;42.678;23.288;2022-08-21T06:07:13;13.32;;;8.18;;
21091;SDS011;10704;42.678;23.288;2022-08-21T06:09:39;16.17;;;8.27;;
21091;SDS011;10704;42.678;23.288;2022-08-21T06:12:07;19.05;;;8.32;;
21091;SDS011;10704;42.678;23.288;2022-08-21T06:14:35;15.45;;;9.20;;
21091;SDS011;10704;42.678;23.288;2022-08-21T06:17:06;18.55;;;9.18;;
21091;SDS011;10704;42.678;23.288;2022-08-21T06:19:34;15.23;;;8.43;;
21091;SDS011;10704;42.678;23.288;2022-08-21T06:22:00;15.07;;;9.25;;
21091;SDS011;10704;42.678;23.288;2022-08-21T06:24:27;21.98;;;9.82;;
21091;SDS011;10704;42.678;23.288;2022-08-21T06:26:53;15.90;;;9.98;;
21091;SDS011;10704;42.678;23.288;2022-08-21T06:29:20;19.65;;;10.27;;
21091;SDS011;10704;42.678;23.288;2022-08-21T06:31:47;14.65;;;9.07;;
21091;SDS011;10704;42.678;23.288;2022-08-21T06:34:14;22.10;;;11.20;;
21091;SDS011;10704;42.678;23.288;2022-08-21T06:36:41;18.10;;;10.65;;
21091;SDS011;10704;42.678;23.288;2022-08-21T06:39:07;19.55;;;10.88;;
21091;SDS011;10704;42.678;23.288;2022-08-21T06:41:33;16.25;;;10.23;;
21091;SDS011;10704;42.678;23.288;2022-08-21T06:43:59;18.85;;;9.82;;
21091;SDS011;10704;42.678;23.288;2022-08-21T06:46:26;15.18;;;10.30;;
21091;SDS011;10704;42.678;23.288;2022-08-21T06:48:53;16.35;;;9.20;;
21091;SDS011;10704;42.678;23.288;2022-08-21T06:51:20;19.63;;;10.05;;
21091;SDS011;10704;42.678;23.288;2022-08-21T06:53:46;13.90;;;10.30;;
21091;SDS011;10704;42.678;23.288;2022-08-21T06:56:12;17.83;;;9.10;;
21091;SDS011;10704;42.678;23.288;2022-08-21T06:58:38;17.67;;;10.43;;
21091;SDS011;10704;42.678;23.288;2022-08-21T07:01:04;16.67;;;8.85;;
21091;SDS011;10704;42.678;23.288;2022-08-21T07:03:33;14.20;;;8.57;;
21091;SDS011;10704;42.678;23.288;2022-08-21T07:06:08;17.33;;;8.68;;
21091;SDS011;10704;42.678;23.288;2022-08-21T07:08:35;21.13;;;9.85;;
21091;SDS011;10704;42.678;23.288;2022-08-21T07:11:02;18.02;;;9.18;;
21091;SDS011;10704;42.678;23.288;2022-08-21T07:13:32;13.88;;;9.02;;
21091;SDS011;10704;42.678;23.288;2022-08-21T07:15:58;17.27;;;9.10;;
21091;SDS011;10704;42.678;23.288;2022-08-21T07:18:24;13.88;;;9.10;;
21091;SDS011;10704;42.678;23.288;2022-08-21T07:20:50;19.27;;;9.55;;
21091;SDS011;10704;42.678;23.288;2022-08-21T07:23:24;19.83;;;10.13;;
21091;SDS011;10704;42.678;23.288;2022-08-21T07:25:53;15.75;;;9.45;;
21091;SDS011;10704;42.678;23.288;2022-08-21T07:28:19;15.65;;;9.90;;
21091;SDS011;10704;42.678;23.288;2022-08-21T07:30:46;18.95;;;11.20;;
21091;SDS011;10704;42.678;23.288;2022-08-21T07:33:17;19.35;;;11.02;;
21091;SDS011;10704;42.678;23.288;2022-08-21T07:35:43;20.10;;;9.80;;
21091;SDS011;10704;42.678;23.288;2022-08-21T07:38:09;17.42;;;10.27;;
21091;SDS011;10704;42.678;23.288;2022-08-21T07:40:35;13.60;;;8.80;;
21091;SDS011;10704;42.678;23.288;2022-08-21T07:43:01;15.82;;;9.07;;
21091;SDS011;10704;42.678;23.288;2022-08-21T07:45:27;19.00;;;9.85;;
21091;SDS011;10704;42.678;23.288;2022-08-21T07:47:54;15.88;;;9.57;;
21091;SDS011;10704;42.678;23.288;2022-08-21T07:50:21;19.10;;;9.82;;
21091;SDS011;10704;42.678;23.288;2022-08-21T07:52:47;16.95;;;9.98;;
21091;SDS011;10704;42.678;23.288;2022-08-21T07:55:15;16.80;;;9.18;;
21091;SDS011;10704;42.678;23.288;2022-08-21T07:57:42;14.68;;;9.90;;
21091;SDS011;10704;42.678;23.288;2022-08-21T08:00:10;20.13;;;10.25;;
21091;SDS011;10704;42.678;23.288;2022-08-21T08:02:40;15.40;;;9.02;;
21091;SDS011;10704;42.678;23.288;2022-08-21T08:05:07;16.00;;;9.02;;
21091;SDS011;10704;42.678;23.288;2022-08-21T08:07:36;18.05;;;9.15;;
21091;SDS011;10704;42.678;23.288;2022-08-21T08:10:03;15.27;;;8.63;;
21091;SDS011;10704;42.678;23.288;2022-08-21T08:12:31;16.23;;;9.32;;
21091;SDS011;10704;42.678;23.288;2022-08-21T08:14:59;17.00;;;9.50;;
21091;SDS011;10704;42.678;23.288;2022-08-21T08:17:26;18.52;;;9.68;;
21091;SDS011;10704;42.678;23.288;2022-08-21T08:19:53;14.43;;;8.90;;
21091;SDS011;10704;42.678;23.288;2022-08-21T08:22:21;12.85;;;8.50;;
21091;SDS011;10704;42.678;23.288;2022-08-21T08:24:49;17.25;;;8.00;;
21091;SDS011;10704;42.678;23.288;2022-08-21T08:27:17;14.73;;;8.80;;
21091;SDS011;10704;42.678;23.288;2022-08-21T08:29:43;17.23;;;9.80;;
21091;SDS011;10704;42.678;23.288;2022-08-21T08:32:10;14.00;;;9.10;;
21091;SDS011;10704;42.678;23.288;2022-08-21T08:34:36;17.80;;;9.32;;
21091;SDS011;10704;42.678;23.288;2022-08-21T08:37:04;23.25;;;9.35;;
21091;SDS011;10704;42.678;23.288;2022-08-21T08:39:31;20.90;;;8.80;;
21091;SDS011;10704;42.678;23.288;2022-08-21T08:42:04;14.00;;;8.60;;
21091;SDS011;10704;42.678;23.288;2022-08-21T08:44:30;19.90;;;9.35;;
21091;SDS011;10704;42.678;23.288;2022-08-21T08:46:56;14.65;;;9.07;;
21091;SDS011;10704;42.678;23.288;2022-08-21T08:49:37;13.73;;;8.80;;
21091;SDS011;10704;42.678;23.288;2022-08-21T08:52:11;15.85;;;9.15;;
21091;SDS011;10704;42.678;23.288;2022-08-21T08:54:47;14.63;;;7.75;;
21091;SDS011;10704;42.678;23.288;2022-08-21T08:57:19;12.60;;;6.88;;
21091;SDS011;10704;42.678;23.288;2022-08-21T08:59:48;16.27;;;7.43;;
21091;SDS011;10704;42.678;23.288;2022-08-21T09:02:17;16.00;;;6.90;;
21091;SDS011;10704;42.678;23.288;2022-08-21T09:04:45;11.57;;;6.35;;
21091;SDS011;10704;42.678;23.288;2022-08-21T09:07:35;12.35;;;6.97;;
21091;SDS011;10704;42.678;23.288;2022-08-21T09:10:07;12.77;;;7.60;;
21091;SDS011;10704;42.678;23.288;2022-08-21T09:13:19;11.88;;;7.22;;
21091;SDS011;10704;42.678;23.288;2022-08-21T09:18:20;12.77;;;6.88;;
21091;SDS011;10704;42.678;23.288;2022-08-21T09:23:39;15.07;;;7.70;;
21091;SDS011;10704;42.678;23.288;2022-08-21T09:26:19;11.40;;;6.88;;
21091;SDS011;10704;42.678;23.288;2022-08-21T09:28:57;17.15;;;6.85;;
21091;SDS011;10704;42.678;23.288;2022-08-21T09:34:02;15.43;;;7.05;;
21091;SDS011;10704;42.678;23.288;2022-08-21T09:36:41;11.95;;;7.38;;
21091;SDS011;10704;42.678;23.288;2022-08-21T09:39:10;12.77;;;6.68;;
21091;SDS011;10704;42.678;23.288;2022-08-21T09:41:37;12.95;;;6.80;;
21091;SDS011;10704;42.678;23.288;2022-08-21T09:44:05;14.98;;;6.95;;
21091;SDS011;10704;42.678;23.288;2022-08-21T09:46:32;10.82;;;5.85;;
21091;SDS011;10704;42.678;23.288;2022-08-21T09:48:59;15.90;;;6.10;;
21091;SDS011;10704;42.678;23.288;2022-08-21T09:51:28;11.57;;;5.65;;
21091;SDS011;10704;42.678;23.288;2022-08-21T09:56:33;16.00;;;6.13;;
21091;SDS011;10704;42.678;23.288;2022-08-21T09:59:36;14.52;;;5.85;;
21091;SDS011;10704;42.678;23.288;2022-08-21T10:02:22;14.07;;;6.40;;
21091;SDS011;10704;42.678;23.288;2022-08-21T10:04:52;16.00;;;5.68;;
21091;SDS011;10704;42.678;23.288;2022-08-21T10:07:27;14.82;;;6.18;;
21091;SDS011;10704;42.678;23.288;2022-08-21T10:10:06;15.48;;;6.28;;
21091;SDS011;10704;42.678;23.288;2022-08-21T10:21:10;14.13;;;6.03;;
21091;SDS011;10704;42.678;23.288;2022-08-21T10:23:48;12.45;;;6.30;;
21091;SDS011;10704;42.678;23.288;2022-08-21T10:26:30;13.65;;;5.68;;
21091;SDS011;10704;42.678;23.288;2022-08-21T10:34:56;11.57;;;5.40;;
21091;SDS011;10704;42.678;23.288;2022-08-21T10:37:41;11.80;;;5.78;;
21091;SDS011;10704;42.678;23.288;2022-08-21T10:48:37;12.05;;;4.90;;
21091;SDS011;10704;42.678;23.288;2022-08-21T10:51:31;10.20;;;5.05;;
21091;SDS011;10704;42.678;23.288;2022-08-21T10:56:47;13.00;;;6.32;;
21091;SDS011;10704;42.678;23.288;2022-08-21T11:07:11;10.48;;;5.65;;
21091;SDS011;10704;42.678;23.288;2022-08-21T11:09:46;9.50;;;5.72;;
21091;SDS011;10704;42.678;23.288;2022-08-21T11:12:24;12.73;;;6.20;;
21091;SDS011;10704;42.678;23.288;2022-08-21T11:14:56;8.20;;;6.13;;
21091;SDS011;10704;42.678;23.288;2022-08-21T11:17:36;11.55;;;6.30;;
21091;SDS011;10704;42.678;23.288;2022-08-21T11:23:41;12.07;;;6.05;;
21091;SDS011;10704;42.678;23.288;2022-08-21T11:26:00;13.52;;;6.35;;
21091;SDS011;10704;42.678;23.288;2022-08-21T11:28:36;16.77;;;6.75;;
21091;SDS011;10704;42.678;23.288;2022-08-21T11:31:33;13.98;;;6.93;;
21091;SDS011;10704;42.678;23.288;2022-08-21T11:34:54;11.18;;;6.68;;
21091;SDS011;10704;42.678;23.288;2022-08-21T11:37:23;11.85;;;6.53;;
21091;SDS011;10704;42.678;23.288;2022-08-21T11:40:00;11.75;;;5.78;;
21091;SDS011;10704;42.678;23.288;2022-08-21T11:48:12;12.70;;;6.00;;
21091;SDS011;10704;42.678;23.288;2022-08-21T11:51:04;9.60;;;5.68;;
21091;SDS011;10704;42.678;23.288;2022-08-21T11:53:39;11.90;;;6.00;;
21091;SDS011;10704;42.678;23.288;2022-08-21T11:56:28;10.07;;;4.82;;
21091;SDS011;10704;42.678;23.288;2022-08-21T11:59:11;9.50;;;5.45;;
21091;SDS011;10704;42.678;23.288;2022-08-21T12:01:52;11.55;;;5.22;;
21091;SDS011;10704;42.678;23.288;2022-08-21T12:04:23;10.43;;;6.03;;
21091;SDS011;10704;42.678;23.288;2022-08-21T12:06:53;12.88;;;5.90;;
21091;SDS011;10704;42.678;23.288;2022-08-21T12:12:01;10.70;;;5.75;;
21091;SDS011;10704;42.678;23.288;2022-08-21T12:14:47;10.95;;;5.70;;
21091;SDS011;10704;42.678;23.288;2022-08-21T12:17:22;12.82;;;6.10;;
21091;SDS011;10704;42.678;23.288;2022-08-21T12:20:22;7.10;;;5.05;;
21091;SDS011;10704;42.678;23.288;2022-08-21T12:25:42;7.95;;;5.03;;
21091;SDS011;10704;42.678;23.288;2022-08-21T12:28:09;12.02;;;5.93;;
21091;SDS011;10704;42.678;23.288;2022-08-21T12:30:39;12.57;;;5.25;;
21091;SDS011;10704;42.678;23.288;2022-08-21T12:33:25;10.45;;;5.80;;
21091;SDS011;10704;42.678;23.288;2022-08-21T12:35:53;9.55;;;5.60;;
21091;SDS011;10704;42.678;23.288;2022-08-21T12:38:51;10.32;;;5.32;;
21091;SDS011;10704;42.678;23.288;2022-08-21T12:44:13;11.20;;;5.68;;
21091;SDS011;10704;42.678;23.288;2022-08-21T12:47:01;10.00;;;5.45;;
21091;SDS011;10704;42.678;23.288;2022-08-21T12:49:37;7.25;;;5.65;;
21091;SDS011;10704;42.678;23.288;2022-08-21T12:52:34;9.57;;;6.25;;
21091;SDS011;10704;42.678;23.288;2022-08-21T12:55:05;13.38;;;5.78;;
21091;SDS011;10704;42.678;23.288;2022-08-21T12:57:35;11.32;;;6.28;;
21091;SDS011;10704;42.678;23.288;2022-08-21T13:00:04;15.02;;;5.88;;
21091;SDS011;10704;42.678;23.288;2022-08-21T13:02:42;12.05;;;5.85;;
21091;SDS011;10704;42.678;23.288;2022-08-21T13:05:14;12.68;;;5.78;;
21091;SDS011;10704;42.678;23.288;2022-08-21T13:07:46;9.02;;;5.53;;
21091;SDS011;10704;42.678;23.288;2022-08-21T13:10:18;10.32;;;5.70;;
21091;SDS011;10704;42.678;23.288;2022-08-21T13:12:49;14.73;;;6.25;;
21091;SDS011;10704;42.678;23.288;2022-08-21T13:15:23;9.20;;;5.45;;
21091;SDS011;10704;42.678;23.288;2022-08-21T13:17:53;8.65;;;5.25;;
21091;SDS011;10704;42.678;23.288;2022-08-21T13:20:21;11.25;;;5.50;;
21091;SDS011;10704;42.678;23.288;2022-08-21T13:22:49;9.85;;;5.40;;
21091;SDS011;10704;42.678;23.288;2022-08-21T13:25:17;12.50;;;5.70;;
21091;SDS011;10704;42.678;23.288;2022-08-21T13:27:55;10.25;;;5.35;;
21091;SDS011;10704;42.678;23.288;2022-08-21T13:30:24;15.50;;;5.43;;
21091;SDS011;10704;42.678;23.288;2022-08-21T13:32:52;11.85;;;5.50;;
21091;SDS011;10704;42.678;23.288;2022-08-21T13:35:24;12.98;;;5.40;;
21091;SDS011;10704;42.678;23.288;2022-08-21T13:37:53;10.63;;;5.35;;
21091;SDS011;10704;42.678;23.288;2022-08-21T13:43:15;9.73;;;4.95;;
21091;SDS011;10704;42.678;23.288;2022-08-21T13:45:47;11.77;;;5.20;;
21091;SDS011;10704;42.678;23.288;2022-08-21T13:48:16;10.88;;;5.00;;
21091;SDS011;10704;42.678;23.288;2022-08-21T13:50:43;10.20;;;5.38;;
21091;SDS011;10704;42.678;23.288;2022-08-21T13:53:21;11.80;;;5.20;;
21091;SDS011;10704;42.678;23.288;2022-08-21T13:55:54;11.50;;;5.25;;
21091;SDS011;10704;42.678;23.288;2022-08-21T13:58:29;13.80;;;5.15;;
21091;SDS011;10704;42.678;23.288;2022-08-21T14:00:57;12.10;;;5.75;;
21091;SDS011;10704;42.678;23.288;2022-08-21T14:03:27;9.57;;;5.43;;
21091;SDS011;10704;42.678;23.288;2022-08-21T14:06:03;12.90;;;5.85;;
21091;SDS011;10704;42.678;23.288;2022-08-21T14:08:47;9.68;;;5.25;;
21091;SDS011;10704;42.678;23.288;2022-08-21T14:11:17;11.25;;;5.45;;
21091;SDS011;10704;42.678;23.288;2022-08-21T14:13:44;12.98;;;5.88;;
21091;SDS011;10704;42.678;23.288;2022-08-21T14:16:57;12.85;;;6.32;;
21091;SDS011;10704;42.678;23.288;2022-08-21T14:19:49;14.35;;;5.60;;
21091;SDS011;10704;42.678;23.288;2022-08-21T14:27:54;19.98;;;7.10;;
21091;SDS011;10704;42.678;23.288;2022-08-21T14:30:57;17.40;;;7.70;;
21091;SDS011;10704;42.678;23.288;2022-08-21T14:33:36;12.10;;;7.18;;
21091;SDS011;10704;42.678;23.288;2022-08-21T14:36:02;15.82;;;7.68;;
21091;SDS011;10704;42.678;23.288;2022-08-21T14:38:28;13.40;;;8.30;;
21091;SDS011;10704;42.678;23.288;2022-08-21T14:40:56;18.08;;;10.30;;
21091;SDS011;10704;42.678;23.288;2022-08-21T14:43:26;17.30;;;9.93;;
21091;SDS011;10704;42.678;23.288;2022-08-21T14:45:53;13.88;;;7.88;;
21091;SDS011;10704;42.678;23.288;2022-08-21T14:48:19;10.95;;;7.32;;
21091;SDS011;10704;42.678;23.288;2022-08-21T14:50:45;13.38;;;8.40;;
21091;SDS011;10704;42.678;23.288;2022-08-21T14:53:12;15.18;;;8.50;;
21091;SDS011;10704;42.678;23.288;2022-08-21T14:55:38;18.48;;;8.55;;
21091;SDS011;10704;42.678;23.288;2022-08-21T14:58:24;13.07;;;9.10;;
21091;SDS011;10704;42.678;23.288;2022-08-21T15:00:51;13.60;;;8.35;;
21091;SDS011;10704;42.678;23.288;2022-08-21T15:03:19;15.55;;;10.13;;
21091;SDS011;10704;42.678;23.288;2022-08-21T15:05:47;16.83;;;7.70;;
21091;SDS011;10704;42.678;23.288;2022-08-21T15:08:13;15.50;;;7.22;;
21091;SDS011;10704;42.678;23.288;2022-08-21T15:10:39;11.45;;;7.15;;
21091;SDS011;10704;42.678;23.288;2022-08-21T15:13:06;14.85;;;8.52;;
21091;SDS011;10704;42.678;23.288;2022-08-21T15:15:35;16.02;;;9.45;;
21091;SDS011;10704;42.678;23.288;2022-08-21T15:18:05;16.23;;;8.82;;
21091;SDS011;10704;42.678;23.288;2022-08-21T15:20:31;12.43;;;7.60;;
21091;SDS011;10704;42.678;23.288;2022-08-21T15:22:58;10.90;;;7.57;;
21091;SDS011;10704;42.678;23.288;2022-08-21T15:25:24;11.52;;;7.70;;
21091;SDS011;10704;42.678;23.288;2022-08-21T15:27:50;14.77;;;7.72;;
21091;SDS011;10704;42.678;23.288;2022-08-21T15:30:16;15.60;;;7.63;;
21091;SDS011;10704;42.678;23.288;2022-08-21T15:32:42;17.52;;;8.30;;
21091;SDS011;10704;42.678;23.288;2022-08-21T15:35:08;13.27;;;7.43;;
21091;SDS011;10704;42.678;23.288;2022-08-21T15:37:35;13.80;;;9.07;;
21091;SDS011;10704;42.678;23.288;2022-08-21T15:40:01;14.43;;;7.45;;
21091;SDS011;10704;42.678;23.288;2022-08-21T15:42:28;15.88;;;7.18;;
21091;SDS011;10704;42.678;23.288;2022-08-21T15:44:55;13.30;;;7.50;;